sensor_id;sensor_type;location;lat;lon;timestamp;temperature;humidity
997;DHT22;487;50.126;8.698;2023-03-14T00:00:33;11.30;1.00
997;DHT22;487;50.126;8.698;2023-03-14T00:03:01;11.20;1.00
997;DHT22;487;50.126;8.698;2023-03-14T00:05:29;11.20;1.00
997;DHT22;487;50.126;8.698;2023-03-14T00:07:57;11.30;1.00
997;DHT22;487;50.126;8.698;2023-03-14T00:10:25;11.30;1.00
997;DHT22;487;50.126;8.698;2023-03-14T00:12:53;11.30;1.00
997;DHT22;487;50.126;8.698;2023-03-14T00:15:21;11.40;1.00
997;DHT22;487;50.126;8.698;2023-03-14T00:17:50;11.40;1.00
997;DHT22;487;50.126;8.698;2023-03-14T00:22:53;11.30;1.00
997;DHT22;487;50.126;8.698;2023-03-14T00:25:21;11.30;1.00
997;DHT22;487;50.126;8.698;2023-03-14T00:27:50;11.20;1.00
997;DHT22;487;50.126;8.698;2023-03-14T00:30:20;11.30;1.00
997;DHT22;487;50.126;8.698;2023-03-14T00:32:50;11.30;1.00
997;DHT22;487;50.126;8.698;2023-03-14T00:35:18;11.30;1.00
997;DHT22;487;50.126;8.698;2023-03-14T00:37:45;11.30;1.00
997;DHT22;487;50.126;8.698;2023-03-14T00:40:13;11.30;1.00
997;DHT22;487;50.126;8.698;2023-03-14T00:42:41;11.30;1.00
997;DHT22;487;50.126;8.698;2023-03-14T00:45:10;11.40;1.00
997;DHT22;487;50.126;8.698;2023-03-14T00:47:37;11.40;1.00
997;DHT22;487;50.126;8.698;2023-03-14T00:50:08;11.40;1.00
997;DHT22;487;50.126;8.698;2023-03-14T00:52:36;11.40;1.00
997;DHT22;487;50.126;8.698;2023-03-14T00:55:05;11.50;1.00
997;DHT22;487;50.126;8.698;2023-03-14T00:57:32;11.50;1.00
997;DHT22;487;50.126;8.698;2023-03-14T01:00:00;11.50;1.00
997;DHT22;487;50.126;8.698;2023-03-14T05:00:54;11.60;99.90
997;DHT22;487;50.126;8.698;2023-03-14T05:03:22;11.60;99.90
997;DHT22;487;50.126;8.698;2023-03-14T05:05:50;11.50;99.90
997;DHT22;487;50.126;8.698;2023-03-14T05:08:18;11.40;99.90
997;DHT22;487;50.126;8.698;2023-03-14T05:10:52;11.40;99.90
997;DHT22;487;50.126;8.698;2023-03-14T05:15:48;11.40;99.90
997;DHT22;487;50.126;8.698;2023-03-14T05:18:18;11.40;99.90
997;DHT22;487;50.126;8.698;2023-03-14T05:20:46;11.40;99.90
997;DHT22;487;50.126;8.698;2023-03-14T05:23:17;11.40;99.90
997;DHT22;487;50.126;8.698;2023-03-14T05:25:45;11.40;99.90
997;DHT22;487;50.126;8.698;2023-03-14T05:28:13;11.40;99.90
997;DHT22;487;50.126;8.698;2023-03-14T05:30:41;11.40;99.90
997;DHT22;487;50.126;8.698;2023-03-14T05:33:09;11.40;99.90
997;DHT22;487;50.126;8.698;2023-03-14T05:35:38;11.50;99.90
997;DHT22;487;50.126;8.698;2023-03-14T05:38:06;11.50;99.90
997;DHT22;487;50.126;8.698;2023-03-14T05:40:34;11.50;99.90
997;DHT22;487;50.126;8.698;2023-03-14T05:43:02;11.40;99.90
997;DHT22;487;50.126;8.698;2023-03-14T05:45:30;11.40;99.90
997;DHT22;487;50.126;8.698;2023-03-14T05:48:01;11.40;99.90
997;DHT22;487;50.126;8.698;2023-03-14T05:52:58;11.40;99.90
997;DHT22;487;50.126;8.698;2023-03-14T05:55:26;11.30;99.90
997;DHT22;487;50.126;8.698;2023-03-14T05:57:55;11.30;99.90
997;DHT22;487;50.126;8.698;2023-03-14T06:00:22;11.30;99.90
997;DHT22;487;50.126;8.698;2023-03-14T06:02:50;11.30;99.90
997;DHT22;487;50.126;8.698;2023-03-14T06:05:19;11.30;99.90
997;DHT22;487;50.126;8.698;2023-03-14T06:12:45;11.40;99.90
997;DHT22;487;50.126;8.698;2023-03-14T06:15:13;11.30;99.90
997;DHT22;487;50.126;8.698;2023-03-14T06:17:41;11.30;99.90
997;DHT22;487;50.126;8.698;2023-03-14T06:20:10;11.30;99.90
997;DHT22;487;50.126;8.698;2023-03-14T06:22:38;11.30;99.90
997;DHT22;487;50.126;8.698;2023-03-14T06:25:08;11.30;99.90
997;DHT22;487;50.126;8.698;2023-03-14T06:27:38;11.30;99.90
997;DHT22;487;50.126;8.698;2023-03-14T06:30:07;11.30;99.90
997;DHT22;487;50.126;8.698;2023-03-14T06:32:35;11.30;99.90
997;DHT22;487;50.126;8.698;2023-03-14T06:35:06;11.30;99.90
997;DHT22;487;50.126;8.698;2023-03-14T06:37:34;11.30;99.90
997;DHT22;487;50.126;8.698;2023-03-14T06:40:03;11.20;99.90
997;DHT22;487;50.126;8.698;2023-03-14T06:42:31;11.20;99.90
997;DHT22;487;50.126;8.698;2023-03-14T06:45:01;11.30;99.90
997;DHT22;487;50.126;8.698;2023-03-14T06:47:29;11.40;99.90
997;DHT22;487;50.126;8.698;2023-03-14T06:49:56;11.40;99.90
997;DHT22;487;50.126;8.698;2023-03-14T06:52:24;11.50;99.90
997;DHT22;487;50.126;8.698;2023-03-14T06:54:52;11.40;99.90
997;DHT22;487;50.126;8.698;2023-03-14T06:57:20;11.40;99.90
997;DHT22;487;50.126;8.698;2023-03-14T06:59:48;11.50;99.90
997;DHT22;487;50.126;8.698;2023-03-14T07:02:17;11.50;99.90
997;DHT22;487;50.126;8.698;2023-03-14T07:04:52;11.60;99.90
997;DHT22;487;50.126;8.698;2023-03-14T07:07:20;11.60;99.90
997;DHT22;487;50.126;8.698;2023-03-14T07:09:48;11.60;99.90
997;DHT22;487;50.126;8.698;2023-03-14T07:12:16;11.60;99.90
997;DHT22;487;50.126;8.698;2023-03-14T07:14:44;11.60;99.90
997;DHT22;487;50.126;8.698;2023-03-14T07:17:12;11.60;99.90
997;DHT22;487;50.126;8.698;2023-03-14T07:19:41;11.60;99.90
997;DHT22;487;50.126;8.698;2023-03-14T07:22:08;11.60;99.90
997;DHT22;487;50.126;8.698;2023-03-14T07:24:36;11.60;99.90
997;DHT22;487;50.126;8.698;2023-03-14T07:27:04;11.60;99.90
997;DHT22;487;50.126;8.698;2023-03-14T07:29:35;11.70;99.90
997;DHT22;487;50.126;8.698;2023-03-14T07:32:03;11.70;99.90
997;DHT22;487;50.126;8.698;2023-03-14T07:34:31;11.70;99.90
997;DHT22;487;50.126;8.698;2023-03-14T07:37:01;11.70;99.90
997;DHT22;487;50.126;8.698;2023-03-14T07:39:29;11.60;99.90
997;DHT22;487;50.126;8.698;2023-03-14T07:41:56;11.60;99.90
997;DHT22;487;50.126;8.698;2023-03-14T07:46:54;11.60;99.90
997;DHT22;487;50.126;8.698;2023-03-14T07:49:22;11.60;99.90
997;DHT22;487;50.126;8.698;2023-03-14T07:51:50;11.50;99.90
997;DHT22;487;50.126;8.698;2023-03-14T07:54:19;11.50;99.90
997;DHT22;487;50.126;8.698;2023-03-14T07:56:47;11.50;99.90
997;DHT22;487;50.126;8.698;2023-03-14T08:01:44;11.50;99.90
997;DHT22;487;50.126;8.698;2023-03-14T08:04:12;11.60;99.90
997;DHT22;487;50.126;8.698;2023-03-14T08:06:40;11.60;99.90
997;DHT22;487;50.126;8.698;2023-03-14T08:09:08;11.60;99.90
997;DHT22;487;50.126;8.698;2023-03-14T08:11:37;11.60;99.90
997;DHT22;487;50.126;8.698;2023-03-14T08:14:05;11.60;99.90
997;DHT22;487;50.126;8.698;2023-03-14T08:16:33;11.60;99.90
997;DHT22;487;50.126;8.698;2023-03-14T08:19:02;11.60;99.90
997;DHT22;487;50.126;8.698;2023-03-14T08:21:30;11.60;99.90
997;DHT22;487;50.126;8.698;2023-03-14T08:28:57;11.40;99.90
997;DHT22;487;50.126;8.698;2023-03-14T08:31:25;11.40;99.90
997;DHT22;487;50.126;8.698;2023-03-14T08:33:53;11.50;99.90
997;DHT22;487;50.126;8.698;2023-03-14T08:36:21;11.50;99.90
997;DHT22;487;50.126;8.698;2023-03-14T08:38:50;11.50;99.90
997;DHT22;487;50.126;8.698;2023-03-14T08:41:18;11.50;99.90
997;DHT22;487;50.126;8.698;2023-03-14T08:43:46;11.50;99.90
997;DHT22;487;50.126;8.698;2023-03-14T08:46:16;11.50;99.90
997;DHT22;487;50.126;8.698;2023-03-14T08:48:43;11.50;99.90
997;DHT22;487;50.126;8.698;2023-03-14T08:51:13;11.50;99.90
997;DHT22;487;50.126;8.698;2023-03-14T08:53:41;11.50;99.90
997;DHT22;487;50.126;8.698;2023-03-14T08:56:09;11.40;99.90
997;DHT22;487;50.126;8.698;2023-03-14T08:58:37;11.40;99.90
997;DHT22;487;50.126;8.698;2023-03-14T09:01:07;11.50;99.90
997;DHT22;487;50.126;8.698;2023-03-14T09:03:43;11.60;99.90
997;DHT22;487;50.126;8.698;2023-03-14T09:08:45;11.80;99.90
997;DHT22;487;50.126;8.698;2023-03-14T09:14:00;11.90;99.90
997;DHT22;487;50.126;8.698;2023-03-14T09:19:01;11.90;99.90
997;DHT22;487;50.126;8.698;2023-03-14T09:21:29;11.90;99.90
997;DHT22;487;50.126;8.698;2023-03-14T09:26:25;12.20;99.90
997;DHT22;487;50.126;8.698;2023-03-14T09:31:24;12.30;99.90
997;DHT22;487;50.126;8.698;2023-03-14T09:33:52;12.40;99.90
997;DHT22;487;50.126;8.698;2023-03-14T09:36:21;12.40;99.90
997;DHT22;487;50.126;8.698;2023-03-14T09:41:21;12.40;99.90
997;DHT22;487;50.126;8.698;2023-03-14T09:43:58;12.30;99.90
997;DHT22;487;50.126;8.698;2023-03-14T09:46:29;12.30;99.90
997;DHT22;487;50.126;8.698;2023-03-14T09:48:59;12.30;99.90
997;DHT22;487;50.126;8.698;2023-03-14T09:51:29;12.20;99.90
997;DHT22;487;50.126;8.698;2023-03-14T09:53:58;12.10;99.90
997;DHT22;487;50.126;8.698;2023-03-14T09:56:29;12.10;99.90
997;DHT22;487;50.126;8.698;2023-03-14T09:59:00;12.00;99.90
997;DHT22;487;50.126;8.698;2023-03-14T10:01:31;12.10;99.90
997;DHT22;487;50.126;8.698;2023-03-14T10:04:04;12.20;99.90
997;DHT22;487;50.126;8.698;2023-03-14T10:06:34;12.20;99.90
997;DHT22;487;50.126;8.698;2023-03-14T10:09:03;12.20;99.90
997;DHT22;487;50.126;8.698;2023-03-14T10:11:32;12.30;99.90
997;DHT22;487;50.126;8.698;2023-03-14T10:14:06;12.30;99.90
997;DHT22;487;50.126;8.698;2023-03-14T10:16:36;12.30;99.90
997;DHT22;487;50.126;8.698;2023-03-14T10:19:07;12.20;99.90
997;DHT22;487;50.126;8.698;2023-03-14T10:21:39;12.30;99.90
997;DHT22;487;50.126;8.698;2023-03-14T10:24:21;12.30;99.90
997;DHT22;487;50.126;8.698;2023-03-14T10:26:49;12.30;99.90
997;DHT22;487;50.126;8.698;2023-03-14T10:29:19;12.30;99.90
997;DHT22;487;50.126;8.698;2023-03-14T10:31:51;12.30;99.90
997;DHT22;487;50.126;8.698;2023-03-14T10:34:23;12.40;99.90
997;DHT22;487;50.126;8.698;2023-03-14T10:36:58;12.40;99.90
997;DHT22;487;50.126;8.698;2023-03-14T10:39:34;12.40;99.90
997;DHT22;487;50.126;8.698;2023-03-14T10:42:14;12.40;99.90
997;DHT22;487;50.126;8.698;2023-03-14T10:44:43;12.40;99.90
997;DHT22;487;50.126;8.698;2023-03-14T10:47:20;12.30;99.90
997;DHT22;487;50.126;8.698;2023-03-14T10:49:49;12.30;99.90
997;DHT22;487;50.126;8.698;2023-03-14T10:52:22;12.30;99.90
997;DHT22;487;50.126;8.698;2023-03-14T10:55:12;12.30;99.90
997;DHT22;487;50.126;8.698;2023-03-14T10:57:40;12.30;99.90
997;DHT22;487;50.126;8.698;2023-03-14T11:00:15;12.30;99.90
997;DHT22;487;50.126;8.698;2023-03-14T11:02:53;12.30;99.90
997;DHT22;487;50.126;8.698;2023-03-14T11:05:29;12.20;99.90
997;DHT22;487;50.126;8.698;2023-03-14T11:08:02;12.00;99.90
997;DHT22;487;50.126;8.698;2023-03-14T11:10:34;12.00;99.90
997;DHT22;487;50.126;8.698;2023-03-14T11:13:14;11.90;99.90
997;DHT22;487;50.126;8.698;2023-03-14T11:18:29;11.80;1.00
997;DHT22;487;50.126;8.698;2023-03-14T11:21:09;11.80;1.00
997;DHT22;487;50.126;8.698;2023-03-14T11:23:50;11.80;1.00
997;DHT22;487;50.126;8.698;2023-03-14T11:26:27;11.70;1.00
997;DHT22;487;50.126;8.698;2023-03-14T11:28:58;11.60;1.00
997;DHT22;487;50.126;8.698;2023-03-14T11:31:32;11.50;1.00
997;DHT22;487;50.126;8.698;2023-03-14T11:34:10;11.50;1.00
997;DHT22;487;50.126;8.698;2023-03-14T11:39:14;11.50;1.00
997;DHT22;487;50.126;8.698;2023-03-14T11:41:45;11.60;1.00
997;DHT22;487;50.126;8.698;2023-03-14T11:44:17;11.70;1.00
997;DHT22;487;50.126;8.698;2023-03-14T11:46:49;11.70;1.00
997;DHT22;487;50.126;8.698;2023-03-14T11:49:29;11.60;1.00
997;DHT22;487;50.126;8.698;2023-03-14T11:52:00;11.60;1.00
997;DHT22;487;50.126;8.698;2023-03-14T11:54:36;11.80;1.00
997;DHT22;487;50.126;8.698;2023-03-14T11:57:09;11.80;1.00
997;DHT22;487;50.126;8.698;2023-03-14T11:59:46;11.90;1.00
997;DHT22;487;50.126;8.698;2023-03-14T12:02:22;11.80;1.00
997;DHT22;487;50.126;8.698;2023-03-14T12:05:18;11.80;1.00
997;DHT22;487;50.126;8.698;2023-03-14T12:10:49;11.80;1.00
997;DHT22;487;50.126;8.698;2023-03-14T12:13:19;11.70;1.00
997;DHT22;487;50.126;8.698;2023-03-14T12:15:49;11.20;1.00
997;DHT22;487;50.126;8.698;2023-03-14T12:18:26;11.00;1.00
997;DHT22;487;50.126;8.698;2023-03-14T12:20:57;10.80;1.00
997;DHT22;487;50.126;8.698;2023-03-14T12:23:26;10.60;99.90
997;DHT22;487;50.126;8.698;2023-03-14T12:26:13;10.50;99.90
997;DHT22;487;50.126;8.698;2023-03-14T12:28:43;10.50;1.00
997;DHT22;487;50.126;8.698;2023-03-14T12:31:38;10.50;99.90
997;DHT22;487;50.126;8.698;2023-03-14T12:34:28;10.30;99.90
997;DHT22;487;50.126;8.698;2023-03-14T12:37:05;10.30;99.90
997;DHT22;487;50.126;8.698;2023-03-14T12:39:50;10.30;99.90
997;DHT22;487;50.126;8.698;2023-03-14T12:42:38;10.40;99.90
997;DHT22;487;50.126;8.698;2023-03-14T12:45:15;10.50;99.90
997;DHT22;487;50.126;8.698;2023-03-14T12:48:01;10.50;99.90
997;DHT22;487;50.126;8.698;2023-03-14T12:50:41;10.50;99.90
997;DHT22;487;50.126;8.698;2023-03-14T12:56:32;10.40;99.90
997;DHT22;487;50.126;8.698;2023-03-14T12:59:25;10.50;99.90
997;DHT22;487;50.126;8.698;2023-03-14T13:01:59;10.40;99.90
997;DHT22;487;50.126;8.698;2023-03-14T13:04:31;10.40;99.90
997;DHT22;487;50.126;8.698;2023-03-14T13:07:11;10.40;99.90
997;DHT22;487;50.126;8.698;2023-03-14T13:09:59;10.30;99.90
997;DHT22;487;50.126;8.698;2023-03-14T13:12:32;10.50;99.90
997;DHT22;487;50.126;8.698;2023-03-14T13:15:24;10.50;99.90
997;DHT22;487;50.126;8.698;2023-03-14T13:17:56;10.50;99.90
997;DHT22;487;50.126;8.698;2023-03-14T13:20:31;10.60;99.90
997;DHT22;487;50.126;8.698;2023-03-14T13:23:00;10.60;99.90
997;DHT22;487;50.126;8.698;2023-03-14T13:25:33;10.70;99.90
997;DHT22;487;50.126;8.698;2023-03-14T13:28:02;10.80;99.90
997;DHT22;487;50.126;8.698;2023-03-14T13:30:40;10.80;99.90
997;DHT22;487;50.126;8.698;2023-03-14T13:33:15;10.80;99.90
997;DHT22;487;50.126;8.698;2023-03-14T13:35:45;10.90;99.90
997;DHT22;487;50.126;8.698;2023-03-14T13:38:17;11.00;99.90
997;DHT22;487;50.126;8.698;2023-03-14T13:40:46;11.10;99.90
997;DHT22;487;50.126;8.698;2023-03-14T13:43:17;11.10;99.90
997;DHT22;487;50.126;8.698;2023-03-14T13:45:50;11.10;99.90
997;DHT22;487;50.126;8.698;2023-03-14T13:48:19;11.10;99.90
997;DHT22;487;50.126;8.698;2023-03-14T13:50:52;11.20;99.90
997;DHT22;487;50.126;8.698;2023-03-14T13:53:20;11.20;99.90
997;DHT22;487;50.126;8.698;2023-03-14T13:55:49;11.10;99.90
997;DHT22;487;50.126;8.698;2023-03-14T13:58:23;11.00;99.90
997;DHT22;487;50.126;8.698;2023-03-14T14:01:05;10.90;99.90
997;DHT22;487;50.126;8.698;2023-03-14T14:03:37;10.80;99.90
997;DHT22;487;50.126;8.698;2023-03-14T14:06:10;10.70;99.90
997;DHT22;487;50.126;8.698;2023-03-14T14:08:44;10.70;99.90
997;DHT22;487;50.126;8.698;2023-03-14T14:11:21;10.60;99.90
997;DHT22;487;50.126;8.698;2023-03-14T14:13:58;10.20;99.90
997;DHT22;487;50.126;8.698;2023-03-14T14:16:28;10.10;99.90
997;DHT22;487;50.126;8.698;2023-03-14T14:18:58;10.00;99.90
997;DHT22;487;50.126;8.698;2023-03-14T14:21:28;10.00;99.90
997;DHT22;487;50.126;8.698;2023-03-14T14:23:56;10.00;99.90
997;DHT22;487;50.126;8.698;2023-03-14T14:26:26;10.00;99.90
997;DHT22;487;50.126;8.698;2023-03-14T14:29:02;10.00;99.90
997;DHT22;487;50.126;8.698;2023-03-14T14:31:32;10.10;99.90
997;DHT22;487;50.126;8.698;2023-03-14T14:34:01;10.00;99.90
997;DHT22;487;50.126;8.698;2023-03-14T14:36:31;9.70;99.90
997;DHT22;487;50.126;8.698;2023-03-14T14:39:03;9.50;99.90
997;DHT22;487;50.126;8.698;2023-03-14T14:41:33;9.10;99.90
997;DHT22;487;50.126;8.698;2023-03-14T14:44:03;8.90;99.90
997;DHT22;487;50.126;8.698;2023-03-14T14:46:35;8.90;99.90
997;DHT22;487;50.126;8.698;2023-03-14T14:49:08;8.90;99.90
997;DHT22;487;50.126;8.698;2023-03-14T14:51:41;9.00;99.90
997;DHT22;487;50.126;8.698;2023-03-14T14:54:13;9.00;99.90
997;DHT22;487;50.126;8.698;2023-03-14T14:56:44;9.00;99.90
997;DHT22;487;50.126;8.698;2023-03-14T14:59:22;9.00;99.90
997;DHT22;487;50.126;8.698;2023-03-14T15:01:55;9.10;99.90
997;DHT22;487;50.126;8.698;2023-03-14T15:04:23;9.10;99.90
997;DHT22;487;50.126;8.698;2023-03-14T15:06:52;9.10;99.90
997;DHT22;487;50.126;8.698;2023-03-14T15:09:20;8.90;99.90
997;DHT22;487;50.126;8.698;2023-03-14T15:11:48;8.70;99.90
997;DHT22;487;50.126;8.698;2023-03-14T15:14:16;8.50;99.90
997;DHT22;487;50.126;8.698;2023-03-14T15:16:44;8.50;99.90
997;DHT22;487;50.126;8.698;2023-03-14T15:19:19;8.40;99.90
997;DHT22;487;50.126;8.698;2023-03-14T15:21:51;8.40;99.90
997;DHT22;487;50.126;8.698;2023-03-14T15:24:19;8.30;99.90
997;DHT22;487;50.126;8.698;2023-03-14T15:26:47;8.30;99.90
997;DHT22;487;50.126;8.698;2023-03-14T15:29:15;8.30;99.90
997;DHT22;487;50.126;8.698;2023-03-14T15:31:43;8.20;99.90
997;DHT22;487;50.126;8.698;2023-03-14T15:34:12;8.20;99.90
997;DHT22;487;50.126;8.698;2023-03-14T15:36:41;8.10;99.90
997;DHT22;487;50.126;8.698;2023-03-14T15:39:10;8.20;99.90
997;DHT22;487;50.126;8.698;2023-03-14T15:41:38;8.10;99.90
997;DHT22;487;50.126;8.698;2023-03-14T15:44:06;8.00;99.90
997;DHT22;487;50.126;8.698;2023-03-14T15:46:34;8.00;99.90
997;DHT22;487;50.126;8.698;2023-03-14T15:49:02;8.40;99.90
997;DHT22;487;50.126;8.698;2023-03-14T15:51:31;8.30;99.90
997;DHT22;487;50.126;8.698;2023-03-14T15:53:59;8.30;99.90
997;DHT22;487;50.126;8.698;2023-03-14T15:56:27;8.30;99.90
997;DHT22;487;50.126;8.698;2023-03-14T15:58:57;8.20;99.90
997;DHT22;487;50.126;8.698;2023-03-14T16:01:25;8.60;99.90
997;DHT22;487;50.126;8.698;2023-03-14T16:03:53;8.20;99.90
997;DHT22;487;50.126;8.698;2023-03-14T16:06:22;8.10;99.90
997;DHT22;487;50.126;8.698;2023-03-14T16:08:51;8.60;99.90
997;DHT22;487;50.126;8.698;2023-03-14T16:11:19;8.00;99.90
997;DHT22;487;50.126;8.698;2023-03-14T16:13:49;7.90;99.90
997;DHT22;487;50.126;8.698;2023-03-14T16:16:17;7.90;99.90
997;DHT22;487;50.126;8.698;2023-03-14T16:18:45;7.90;99.90
997;DHT22;487;50.126;8.698;2023-03-14T16:21:15;7.90;99.90
997;DHT22;487;50.126;8.698;2023-03-14T16:23:43;7.80;99.90
997;DHT22;487;50.126;8.698;2023-03-14T16:26:14;7.70;99.90
997;DHT22;487;50.126;8.698;2023-03-14T16:28:43;7.60;99.90
997;DHT22;487;50.126;8.698;2023-03-14T16:31:12;7.60;99.90
997;DHT22;487;50.126;8.698;2023-03-14T16:33:42;7.60;99.90
997;DHT22;487;50.126;8.698;2023-03-14T16:36:11;7.60;99.90
997;DHT22;487;50.126;8.698;2023-03-14T16:38:42;7.60;99.90
997;DHT22;487;50.126;8.698;2023-03-14T16:41:13;7.60;99.90
997;DHT22;487;50.126;8.698;2023-03-14T16:43:42;7.60;99.90
997;DHT22;487;50.126;8.698;2023-03-14T16:46:12;7.50;99.90
997;DHT22;487;50.126;8.698;2023-03-14T16:48:42;7.50;99.90
997;DHT22;487;50.126;8.698;2023-03-14T16:51:10;7.60;99.90
997;DHT22;487;50.126;8.698;2023-03-14T16:53:38;7.60;99.90
997;DHT22;487;50.126;8.698;2023-03-14T16:56:07;7.60;99.90
997;DHT22;487;50.126;8.698;2023-03-14T16:58:36;7.60;99.90
997;DHT22;487;50.126;8.698;2023-03-14T17:01:05;7.50;99.90
997;DHT22;487;50.126;8.698;2023-03-14T17:03:37;7.50;99.90
997;DHT22;487;50.126;8.698;2023-03-14T17:06:05;7.30;99.90
997;DHT22;487;50.126;8.698;2023-03-14T17:08:33;7.30;99.90
997;DHT22;487;50.126;8.698;2023-03-14T17:11:01;7.10;99.90
997;DHT22;487;50.126;8.698;2023-03-14T17:13:29;7.00;99.90
997;DHT22;487;50.126;8.698;2023-03-14T17:15:59;6.90;99.90
997;DHT22;487;50.126;8.698;2023-03-14T17:18:28;6.90;99.90
997;DHT22;487;50.126;8.698;2023-03-14T17:20:59;6.90;99.90
997;DHT22;487;50.126;8.698;2023-03-14T17:23:29;6.90;99.90
997;DHT22;487;50.126;8.698;2023-03-14T17:25:57;7.00;99.90
997;DHT22;487;50.126;8.698;2023-03-14T17:28:26;6.80;99.90
997;DHT22;487;50.126;8.698;2023-03-14T17:31:03;6.80;99.90
997;DHT22;487;50.126;8.698;2023-03-14T17:33:31;6.80;99.90
997;DHT22;487;50.126;8.698;2023-03-14T17:35:59;6.70;99.90
997;DHT22;487;50.126;8.698;2023-03-14T17:38:27;6.60;99.90
997;DHT22;487;50.126;8.698;2023-03-14T17:40:56;6.50;99.90
997;DHT22;487;50.126;8.698;2023-03-14T17:43:24;6.40;99.90
997;DHT22;487;50.126;8.698;2023-03-14T17:46:00;6.30;99.90
997;DHT22;487;50.126;8.698;2023-03-14T17:48:33;6.30;99.90
997;DHT22;487;50.126;8.698;2023-03-14T17:51:01;6.20;99.90
997;DHT22;487;50.126;8.698;2023-03-14T17:53:29;6.20;99.90
997;DHT22;487;50.126;8.698;2023-03-14T17:58:25;6.20;99.90
997;DHT22;487;50.126;8.698;2023-03-14T18:00:54;6.20;99.90
997;DHT22;487;50.126;8.698;2023-03-14T18:03:22;6.20;99.90
997;DHT22;487;50.126;8.698;2023-03-14T18:05:52;6.20;99.90
997;DHT22;487;50.126;8.698;2023-03-14T18:08:20;6.20;99.90
997;DHT22;487;50.126;8.698;2023-03-14T18:10:52;6.20;99.90
997;DHT22;487;50.126;8.698;2023-03-14T18:13:20;6.20;99.90
997;DHT22;487;50.126;8.698;2023-03-14T18:18:17;6.10;99.90
997;DHT22;487;50.126;8.698;2023-03-14T18:20:48;6.00;99.90
997;DHT22;487;50.126;8.698;2023-03-14T18:23:17;6.00;99.90
997;DHT22;487;50.126;8.698;2023-03-14T18:25:45;6.00;99.90
997;DHT22;487;50.126;8.698;2023-03-14T18:28:14;6.00;99.90
997;DHT22;487;50.126;8.698;2023-03-14T18:30:42;6.00;99.90
997;DHT22;487;50.126;8.698;2023-03-14T18:33:12;6.10;99.90
997;DHT22;487;50.126;8.698;2023-03-14T18:35:40;6.10;99.90
997;DHT22;487;50.126;8.698;2023-03-14T18:38:08;6.10;99.90
997;DHT22;487;50.126;8.698;2023-03-14T18:40:37;6.10;99.90
997;DHT22;487;50.126;8.698;2023-03-14T18:43:05;6.10;99.90
997;DHT22;487;50.126;8.698;2023-03-14T18:45:33;6.20;99.90
997;DHT22;487;50.126;8.698;2023-03-14T18:48:01;6.20;99.90
997;DHT22;487;50.126;8.698;2023-03-14T18:50:29;6.30;99.90
997;DHT22;487;50.126;8.698;2023-03-14T18:52:57;6.30;99.90
997;DHT22;487;50.126;8.698;2023-03-14T18:55:24;6.30;99.90
997;DHT22;487;50.126;8.698;2023-03-14T18:57:54;6.30;99.90
997;DHT22;487;50.126;8.698;2023-03-14T19:00:22;6.30;99.90
997;DHT22;487;50.126;8.698;2023-03-14T19:02:52;6.30;99.90
997;DHT22;487;50.126;8.698;2023-03-14T19:05:20;6.30;99.90
997;DHT22;487;50.126;8.698;2023-03-14T19:07:47;6.30;99.90
997;DHT22;487;50.126;8.698;2023-03-14T19:10:15;6.30;99.90
997;DHT22;487;50.126;8.698;2023-03-14T19:12:43;6.30;99.90
997;DHT22;487;50.126;8.698;2023-03-14T19:15:12;6.40;99.90
997;DHT22;487;50.126;8.698;2023-03-14T19:17:40;6.40;99.90
997;DHT22;487;50.126;8.698;2023-03-14T19:20:10;6.50;99.90
997;DHT22;487;50.126;8.698;2023-03-14T19:22:38;6.40;99.90
997;DHT22;487;50.126;8.698;2023-03-14T19:25:07;6.50;99.90
997;DHT22;487;50.126;8.698;2023-03-14T19:27:35;6.60;99.90
997;DHT22;487;50.126;8.698;2023-03-14T19:30:05;6.60;99.90
997;DHT22;487;50.126;8.698;2023-03-14T19:32:35;6.60;99.90
997;DHT22;487;50.126;8.698;2023-03-14T19:37:31;6.50;99.90
997;DHT22;487;50.126;8.698;2023-03-14T19:39:59;4.60;99.90
997;DHT22;487;50.126;8.698;2023-03-14T19:42:27;6.60;99.90
997;DHT22;487;50.126;8.698;2023-03-14T19:44:55;6.70;99.90
997;DHT22;487;50.126;8.698;2023-03-14T19:47:22;6.70;99.90
997;DHT22;487;50.126;8.698;2023-03-14T19:49:51;6.60;99.90
997;DHT22;487;50.126;8.698;2023-03-14T19:52:19;6.60;99.90
997;DHT22;487;50.126;8.698;2023-03-14T19:54:47;6.60;99.90
997;DHT22;487;50.126;8.698;2023-03-14T19:57:15;6.60;99.90
997;DHT22;487;50.126;8.698;2023-03-14T19:59:43;6.60;99.90
997;DHT22;487;50.126;8.698;2023-03-14T20:02:13;6.50;99.90
997;DHT22;487;50.126;8.698;2023-03-14T20:04:41;6.40;99.90
997;DHT22;487;50.126;8.698;2023-03-14T20:07:13;6.40;99.90
997;DHT22;487;50.126;8.698;2023-03-14T20:09:41;6.20;99.90
997;DHT22;487;50.126;8.698;2023-03-14T20:12:09;6.20;99.90
997;DHT22;487;50.126;8.698;2023-03-14T20:14:37;6.30;99.90
997;DHT22;487;50.126;8.698;2023-03-14T20:17:04;6.30;99.90
997;DHT22;487;50.126;8.698;2023-03-14T20:19:33;6.30;99.90
997;DHT22;487;50.126;8.698;2023-03-14T20:22:01;6.40;99.90
997;DHT22;487;50.126;8.698;2023-03-14T20:24:31;6.50;99.90
997;DHT22;487;50.126;8.698;2023-03-14T20:29:27;6.50;99.90
997;DHT22;487;50.126;8.698;2023-03-14T20:34:24;6.50;99.90
997;DHT22;487;50.126;8.698;2023-03-14T20:36:51;6.50;99.90
997;DHT22;487;50.126;8.698;2023-03-14T20:39:19;6.50;99.90
997;DHT22;487;50.126;8.698;2023-03-14T20:46:45;6.50;99.90
997;DHT22;487;50.126;8.698;2023-03-14T20:49:13;6.60;99.90
997;DHT22;487;50.126;8.698;2023-03-14T20:51:40;6.60;99.90
997;DHT22;487;50.126;8.698;2023-03-14T20:54:10;6.60;99.90
997;DHT22;487;50.126;8.698;2023-03-14T20:56:39;6.40;99.90
997;DHT22;487;50.126;8.698;2023-03-14T20:59:09;6.40;99.90
997;DHT22;487;50.126;8.698;2023-03-14T21:01:36;6.40;99.90
997;DHT22;487;50.126;8.698;2023-03-14T21:04:04;6.40;99.90
997;DHT22;487;50.126;8.698;2023-03-14T21:06:32;6.30;99.90
997;DHT22;487;50.126;8.698;2023-03-14T21:09:00;6.40;99.90
997;DHT22;487;50.126;8.698;2023-03-14T21:11:31;6.30;99.90
997;DHT22;487;50.126;8.698;2023-03-14T21:14:02;6.30;99.90
997;DHT22;487;50.126;8.698;2023-03-14T21:16:31;6.20;99.90
997;DHT22;487;50.126;8.698;2023-03-14T21:18:59;6.30;99.90
997;DHT22;487;50.126;8.698;2023-03-14T21:21:28;6.30;99.90
997;DHT22;487;50.126;8.698;2023-03-14T21:23:56;6.40;99.90
997;DHT22;487;50.126;8.698;2023-03-14T21:26:24;6.40;99.90
997;DHT22;487;50.126;8.698;2023-03-14T21:28:52;6.50;99.90
997;DHT22;487;50.126;8.698;2023-03-14T21:31:19;6.60;99.90
997;DHT22;487;50.126;8.698;2023-03-14T21:33:49;9.40;99.90
997;DHT22;487;50.126;8.698;2023-03-14T21:36:17;6.50;99.90
997;DHT22;487;50.126;8.698;2023-03-14T21:38:46;6.50;99.90
997;DHT22;487;50.126;8.698;2023-03-14T21:41:14;6.50;99.90
997;DHT22;487;50.126;8.698;2023-03-14T21:46:11;6.50;99.90
997;DHT22;487;50.126;8.698;2023-03-14T21:48:39;6.50;99.90
997;DHT22;487;50.126;8.698;2023-03-14T21:51:08;6.50;99.90
997;DHT22;487;50.126;8.698;2023-03-14T21:53:36;6.50;99.90
997;DHT22;487;50.126;8.698;2023-03-14T21:56:05;6.50;99.90
997;DHT22;487;50.126;8.698;2023-03-14T21:58:32;6.50;99.90
997;DHT22;487;50.126;8.698;2023-03-14T22:01:02;6.50;99.90
997;DHT22;487;50.126;8.698;2023-03-14T22:03:33;6.50;99.90
997;DHT22;487;50.126;8.698;2023-03-14T22:06:01;6.50;99.90
997;DHT22;487;50.126;8.698;2023-03-14T22:08:30;6.50;99.90
997;DHT22;487;50.126;8.698;2023-03-14T22:10:58;6.50;99.90